Time;durP1;ratioP1;P1;durP2;ratioP2;P2;SDS_P1;SDS_P2;PMS_P1;PMS_P2;Temp;Humidity;BMP_temperature;BMP_pressure;BME280_temperature;BME280_humidity;BME280_pressure;Samples;Min_cycle;Max_cycle;Signal;HPM_P1;HPM_P2
2023/01/03 00:01:39;;;;;;;2.43;1.60;;;8.90;99.90;;;;;;5031836;28;20466;-54
2023/01/03 00:04:06;;;;;;;2.70;1.80;;;8.90;99.90;;;;;;5030233;28;20578;-56
2023/01/03 00:06:35;;;;;;;1.87;1.77;;;8.90;99.90;;;;;;5030156;28;20484;-54
2023/01/03 00:09:04;;;;;;;3.73;2.40;;;8.90;99.90;;;;;;5029714;28;21010;-54
2023/01/03 00:14:22;;;;;;;3.70;1.60;;;8.80;99.90;;;;;;5027286;28;20973;-53
2023/01/03 00:16:51;;;;;;;1.93;1.80;;;8.70;99.90;;;;;;5030280;28;20511;-56
2023/01/03 00:19:17;;;;;;;2.37;2.20;;;8.60;99.90;;;;;;5029589;28;20493;-52
2023/01/03 00:21:45;;;;;;;4.00;2.10;;;8.60;99.90;;;;;;5025285;28;20490;-54
2023/01/03 00:24:12;;;;;;;2.13;1.93;;;8.60;99.90;;;;;;5029847;28;20575;-55
2023/01/03 00:26:40;;;;;;;8.23;2.73;;;8.50;99.90;;;;;;5030960;28;20569;-55
2023/01/03 00:29:07;;;;;;;3.17;1.70;;;8.50;99.90;;;;;;5030506;28;20552;-55
2023/01/03 00:31:35;;;;;;;3.00;1.90;;;8.40;99.90;;;;;;5025286;28;20512;-54
2023/01/03 00:34:02;;;;;;;3.43;1.57;;;8.30;99.90;;;;;;5027485;28;20500;-54
2023/01/03 00:36:28;;;;;;;4.13;1.90;;;8.20;99.90;;;;;;5030995;28;20482;-55
2023/01/03 00:38:56;;;;;;;2.93;1.67;;;8.10;99.90;;;;;;5031270;28;20503;-55
2023/01/03 00:41:23;;;;;;;2.87;1.73;;;8.20;99.90;;;;;;5030368;28;20466;-55
2023/01/03 00:43:50;;;;;;;2.50;1.53;;;8.20;99.90;;;;;;5029147;28;20480;-55
2023/01/03 00:46:19;;;;;;;3.10;1.70;;;8.10;99.90;;;;;;5030612;28;20985;-54
2023/01/03 00:48:46;;;;;;;1.50;1.23;;;8.00;99.90;;;;;;5029914;28;20897;-54
2023/01/03 00:51:15;;;;;;;2.70;1.50;;;8.00;99.90;;;;;;5026630;28;20481;-55
2023/01/03 00:53:43;;;;;;;4.60;1.70;;;8.10;99.90;;;;;;5025931;28;20474;-55
2023/01/03 00:56:13;;;;;;;2.60;1.30;;;8.10;99.90;;;;;;5026507;28;21101;-54
2023/01/03 00:58:40;;;;;;;4.73;1.40;;;8.10;99.90;;;;;;5030054;28;20488;-55
2023/01/03 01:01:07;;;;;;;2.80;1.67;;;8.00;99.90;;;;;;5028836;28;20454;-56
2023/01/03 01:03:35;;;;;;;2.93;1.40;;;8.10;99.90;;;;;;5031456;28;20456;-55
2023/01/03 01:06:11;;;;;;;4.50;1.27;;;8.00;99.90;;;;;;5024742;28;20516;-53
2023/01/03 01:08:37;;;;;;;3.47;1.53;;;8.00;99.90;;;;;;5017871;28;20516;-54
2023/01/03 01:11:04;;;;;;;2.13;1.20;;;8.00;99.90;;;;;;5030887;28;20489;-54
2023/01/03 01:13:33;;;;;;;4.37;1.20;;;7.90;99.90;;;;;;5029876;28;20530;-54
2023/01/03 01:16:04;;;;;;;3.03;1.30;;;7.90;99.90;;;;;;5030723;28;21020;-54
2023/01/03 01:18:31;;;;;;;3.57;1.50;;;7.80;99.90;;;;;;5025893;28;20825;-54
2023/01/03 01:20:58;;;;;;;2.00;1.23;;;7.80;99.90;;;;;;5027054;28;21237;-55
2023/01/03 01:23:24;;;;;;;4.53;1.70;;;7.70;99.90;;;;;;5032537;28;20480;-55
2023/01/03 01:25:51;;;;;;;2.00;1.13;;;7.70;99.90;;;;;;5026753;28;20997;-54
2023/01/03 01:28:17;;;;;;;2.93;1.10;;;7.70;99.90;;;;;;5019671;28;20505;-54
2023/01/03 01:30:45;;;;;;;4.93;1.50;;;7.60;99.90;;;;;;5027156;28;20567;-55
2023/01/03 01:33:12;;;;;;;2.87;1.27;;;7.60;99.90;;;;;;5034695;28;20871;-54
2023/01/03 01:35:39;;;;;;;5.17;1.63;;;7.50;99.90;;;;;;5034622;28;20520;-55
2023/01/03 01:38:06;;;;;;;3.37;1.37;;;7.50;99.90;;;;;;5030645;28;20551;-54
2023/01/03 01:40:32;;;;;;;2.50;1.73;;;7.50;99.90;;;;;;5033983;28;20477;-54
2023/01/03 01:45:52;;;;;;;3.73;1.50;;;7.60;99.90;;;;;;4993760;28;20483;-55
2023/01/03 01:48:18;;;;;;;5.30;1.57;;;7.60;99.90;;;;;;5033275;28;20497;-55
2023/01/03 01:50:50;;;;;;;2.17;1.20;;;7.60;99.90;;;;;;5032534;28;20493;-54
2023/01/03 01:53:20;;;;;;;4.53;1.60;;;7.50;99.90;;;;;;5027960;28;20509;-56
2023/01/03 01:55:50;;;;;;;1.67;1.40;;;7.50;99.90;;;;;;5029133;28;20522;-54
2023/01/03 01:58:17;;;;;;;1.40;1.30;;;7.50;99.90;;;;;;5028460;28;20457;-55
2023/01/03 02:00:44;;;;;;;4.10;1.87;;;7.50;99.90;;;;;;5028877;28;20488;-53
2023/01/03 02:03:13;;;;;;;5.57;1.47;;;7.30;99.90;;;;;;5029982;28;20466;-54
2023/01/03 02:05:43;;;;;;;2.40;1.43;;;7.20;99.90;;;;;;5029370;28;20477;-55
2023/01/03 02:08:10;;;;;;;2.40;1.33;;;7.10;99.90;;;;;;5032063;28;20974;-54
2023/01/03 02:11:03;;;;;;;5.07;1.90;;;7.10;99.90;;;;;;5025810;28;20472;-54
2023/01/03 02:13:37;;;;;;;1.20;1.07;;;7.00;99.90;;;;;;5029844;28;20580;-55
2023/01/03 02:16:18;;;;;;;3.87;1.93;;;6.90;99.90;;;;;;5028914;28;21088;-54
2023/01/03 02:18:53;;;;;;;3.03;1.20;;;6.90;99.90;;;;;;5029267;28;20501;-54
2023/01/03 02:21:59;;;;;;;7.03;1.77;;;6.80;99.90;;;;;;5032425;28;20496;-53
2023/01/03 02:25:04;;;;;;;1.60;1.27;;;6.80;99.90;;;;;;5026557;28;20501;-54
2023/01/03 02:28:01;;;;;;;1.57;1.30;;;6.70;99.90;;;;;;5027970;28;21276;-55
2023/01/03 02:30:42;;;;;;;2.70;1.60;;;6.70;99.90;;;;;;5032029;28;20492;-54
2023/01/03 02:33:19;;;;;;;1.93;1.37;;;6.60;99.90;;;;;;5031821;28;21026;-54
2023/01/03 02:35:54;;;;;;;1.83;1.10;;;6.50;99.90;;;;;;5030544;28;20528;-56
2023/01/03 02:38:26;;;;;;;1.87;1.00;;;6.50;99.90;;;;;;5028372;28;20467;-56
2023/01/03 02:40:59;;;;;;;1.87;1.10;;;6.40;99.90;;;;;;5028881;28;20457;-54
2023/01/03 02:43:29;;;;;;;2.00;1.53;;;6.40;99.90;;;;;;5030944;28;20492;-54
2023/01/03 02:46:04;;;;;;;2.17;1.33;;;6.30;99.90;;;;;;5029969;28;20544;-55
2023/01/03 02:48:41;;;;;;;4.03;1.40;;;6.30;99.90;;;;;;5030522;28;20493;-53
2023/01/03 02:51:13;;;;;;;1.40;1.30;;;6.30;99.90;;;;;;5026718;28;20879;-56
2023/01/03 02:53:44;;;;;;;3.80;1.83;;;6.30;99.90;;;;;;5021516;28;20461;-53
2023/01/03 02:56:16;;;;;;;1.87;1.30;;;6.30;99.90;;;;;;5029035;28;20561;-53
2023/01/03 02:58:48;;;;;;;5.13;2.43;;;6.30;99.90;;;;;;5032237;28;20461;-55
2023/01/03 03:01:17;;;;;;;6.00;1.77;;;6.30;99.90;;;;;;5029796;28;20558;-54
2023/01/03 03:03:46;;;;;;;1.47;1.33;;;6.20;99.90;;;;;;5032202;28;20465;-53
2023/01/03 03:06:30;;;;;;;48.67;2.77;;;6.20;99.90;;;;;;5026755;28;20496;-53
2023/01/03 03:08:58;;;;;;;1.87;1.60;;;6.10;99.90;;;;;;5031703;28;20841;-54
2023/01/03 03:14:21;;;;;;;2.13;1.60;;;6.10;99.90;;;;;;5027828;28;20607;-55
2023/01/03 03:16:51;;;;;;;7.43;1.53;;;6.00;99.90;;;;;;5029063;28;20972;-55
2023/01/03 03:25:02;;;;;;;3.70;1.30;;;6.10;99.90;;;;;;5027291;28;20874;-54
2023/01/03 03:30:21;;;;;;;14.60;2.43;;;6.20;99.90;;;;;;5025842;28;20460;-54
2023/01/03 03:32:51;;;;;;;4.20;1.50;;;6.20;99.90;;;;;;5022363;28;20509;-54
2023/01/03 03:35:23;;;;;;;3.13;1.40;;;6.10;99.90;;;;;;5025846;28;20593;-55
2023/01/03 03:37:53;;;;;;;4.37;1.30;;;6.10;99.90;;;;;;5024532;28;20568;-55
2023/01/03 03:46:04;;;;;;;7.13;1.43;;;5.90;99.90;;;;;;5026062;28;20624;-54
2023/01/03 03:51:22;;;;;;;4.17;1.77;;;5.80;99.90;;;;;;5026490;28;20488;-55
2023/01/03 03:53:50;;;;;;;2.43;1.23;;;5.80;99.90;;;;;;5029497;28;20463;-54
2023/01/03 03:56:22;;;;;;;2.17;1.70;;;5.70;99.90;;;;;;5032040;28;20477;-54
2023/01/03 03:58:53;;;;;;;1.97;1.60;;;5.60;99.90;;;;;;5032454;28;20449;-53
2023/01/03 04:01:22;;;;;;;2.80;1.63;;;5.50;99.90;;;;;;5031283;28;20496;-54
2023/01/03 04:03:52;;;;;;;2.77;1.60;;;5.40;99.90;;;;;;5025013;28;20485;-53
2023/01/03 04:06:22;;;;;;;3.87;1.70;;;5.40;99.90;;;;;;5032166;28;20503;-56
2023/01/03 04:08:48;;;;;;;4.10;1.70;;;5.40;99.90;;;;;;5027146;28;20458;-56
2023/01/03 04:11:15;;;;;;;4.50;1.60;;;5.30;99.90;;;;;;5030862;28;20975;-56
2023/01/03 04:13:41;;;;;;;4.10;1.30;;;5.30;99.90;;;;;;5031928;28;20858;-55
2023/01/03 04:16:08;;;;;;;2.50;1.60;;;5.20;99.90;;;;;;5029644;28;20490;-55
2023/01/03 04:18:35;;;;;;;3.00;1.60;;;5.20;99.90;;;;;;5024224;28;20547;-55
2023/01/03 04:21:03;;;;;;;3.73;1.13;;;5.20;99.90;;;;;;5029494;28;20539;-55
2023/01/03 04:23:29;;;;;;;5.23;1.80;;;5.20;99.90;;;;;;5029227;28;20812;-55
2023/01/03 04:25:56;;;;;;;2.20;1.10;;;5.20;99.90;;;;;;5023074;28;20469;-56
2023/01/03 04:28:23;;;;;;;3.23;1.20;;;5.30;99.90;;;;;;5031101;28;20519;-55
2023/01/03 04:30:49;;;;;;;4.67;1.73;;;5.30;99.90;;;;;;5030464;28;20494;-55
2023/01/03 04:33:16;;;;;;;2.20;1.40;;;5.20;99.90;;;;;;5030724;28;20485;-55
2023/01/03 04:35:42;;;;;;;3.77;1.60;;;5.20;99.90;;;;;;5027493;28;20539;-56
2023/01/03 04:38:10;;;;;;;2.60;1.40;;;5.30;99.90;;;;;;5027510;28;20510;-55
2023/01/03 04:40:38;;;;;;;3.93;1.47;;;5.30;99.90;;;;;;5019462;28;21037;-55
2023/01/03 04:45:49;;;;;;;2.47;1.47;;;5.40;99.90;;;;;;5030318;28;20977;-56
2023/01/03 04:48:16;;;;;;;4.43;1.80;;;5.40;99.90;;;;;;5030537;28;20521;-55
2023/01/03 04:50:51;;;;;;;6.83;1.87;;;5.50;99.90;;;;;;5027361;28;20471;-56
2023/01/03 04:53:18;;;;;;;2.50;1.60;;;5.50;99.90;;;;;;5030775;28;20476;-55
2023/01/03 04:55:47;;;;;;;3.97;1.37;;;5.50;99.90;;;;;;5029267;28;20506;-56
2023/01/03 04:58:13;;;;;;;3.70;1.70;;;5.50;99.90;;;;;;5021202;28;20476;-55
2023/01/03 05:00:40;;;;;;;5.70;1.97;;;5.50;99.90;;;;;;5028582;28;20465;-56
2023/01/03 05:03:07;;;;;;;2.87;1.53;;;5.50;99.90;;;;;;5029967;28;20461;-54
2023/01/03 05:05:36;;;;;;;2.17;1.97;;;5.50;99.90;;;;;;5031201;28;20901;-55
2023/01/03 05:08:04;;;;;;;3.57;2.23;;;5.50;99.90;;;;;;5020710;28;20465;-54
2023/01/03 05:10:32;;;;;;;3.90;2.00;;;5.40;99.90;;;;;;5029445;28;20462;-54
2023/01/03 05:13:01;;;;;;;3.23;1.50;;;5.40;99.90;;;;;;5029490;28;21002;-54
2023/01/03 05:15:29;;;;;;;5.40;2.10;;;5.40;99.90;;;;;;5027608;28;20477;-54
2023/01/03 05:17:56;;;;;;;12.23;2.30;;;5.30;99.90;;;;;;5029490;28;20587;-55
2023/01/03 05:25:58;;;;;;;2.07;1.80;;;5.20;99.90;;;;;;5017179;28;20627;-54
2023/01/03 05:28:25;;;;;;;2.90;1.90;;;5.10;99.90;;;;;;5029474;28;20507;-54
2023/01/03 05:30:52;;;;;;;6.63;1.50;;;5.00;99.90;;;;;;5026357;28;20519;-54
2023/01/03 05:33:18;;;;;;;3.97;1.90;;;4.90;99.90;;;;;;5029140;28;20491;-55
2023/01/03 05:35:46;;;;;;;3.80;1.90;;;4.90;99.90;;;;;;5028680;28;20895;-56
2023/01/03 05:38:12;;;;;;;4.73;1.77;;;4.80;99.90;;;;;;5019736;28;20464;-56
2023/01/03 05:40:39;;;;;;;4.50;2.13;;;4.80;99.90;;;;;;5021173;28;20460;-55
2023/01/03 05:43:07;;;;;;;2.23;1.60;;;4.70;99.90;;;;;;5028070;28;20465;-56
2023/01/03 05:45:35;;;;;;;2.83;1.50;;;4.60;99.90;;;;;;5028312;28;20985;-56
2023/01/03 05:48:01;;;;;;;1.50;1.40;;;4.60;99.90;;;;;;5020849;28;20753;-55
2023/01/03 05:50:28;;;;;;;3.73;1.83;;;4.50;99.90;;;;;;5028118;28;20466;-56
2023/01/03 05:52:55;;;;;;;8.30;2.30;;;4.50;99.90;;;;;;5028555;28;20909;-55
2023/01/03 05:55:22;;;;;;;1.70;1.60;;;4.50;99.90;;;;;;5028147;28;20530;-54
2023/01/03 05:57:48;;;;;;;2.77;1.93;;;4.40;99.90;;;;;;5030078;28;20475;-53
2023/01/03 06:00:16;;;;;;;7.43;1.87;;;4.50;99.90;;;;;;5029974;28;20445;-55
2023/01/03 06:02:43;;;;;;;3.33;2.03;;;4.40;99.90;;;;;;5025275;28;20498;-55
2023/01/03 06:05:10;;;;;;;4.13;2.03;;;4.50;99.90;;;;;;5027191;28;20483;-54
2023/01/03 06:07:37;;;;;;;2.17;2.03;;;4.50;99.90;;;;;;5030995;28;20465;-54
2023/01/03 06:10:05;;;;;;;5.90;1.90;;;4.40;99.90;;;;;;5033947;28;20838;-55
2023/01/03 06:12:31;;;;;;;2.97;1.77;;;4.40;99.90;;;;;;5032224;28;20558;-56
2023/01/03 06:14:58;;;;;;;4.53;1.77;;;4.40;99.90;;;;;;5027003;28;20470;-54
2023/01/03 06:20:10;;;;;;;2.50;1.77;;;4.30;99.90;;;;;;5024152;28;20466;-55
2023/01/03 06:22:36;;;;;;;4.13;1.80;;;4.40;99.90;;;;;;5024738;28;20462;-57
2023/01/03 06:25:03;;;;;;;3.80;1.80;;;4.40;99.90;;;;;;5030929;28;20523;-56
2023/01/03 06:27:30;;;;;;;3.43;1.83;;;4.40;99.90;;;;;;5023842;28;20465;-54
2023/01/03 06:29:57;;;;;;;5.73;1.87;;;4.40;99.90;;;;;;5032135;28;20493;-54
2023/01/03 06:32:23;;;;;;;2.50;1.90;;;4.50;99.90;;;;;;5031842;28;20481;-55
2023/01/03 06:34:51;;;;;;;2.00;1.40;;;4.50;99.90;;;;;;5031352;28;20519;-54
2023/01/03 06:37:18;;;;;;;4.70;1.83;;;4.50;99.90;;;;;;5031445;28;20469;-54
2023/01/03 06:39:45;;;;;;;7.37;2.53;;;4.50;99.90;;;;;;5031668;28;20466;-53
2023/01/03 06:53:13;;;;;;;2.80;1.87;;;4.30;99.90;;;;;;5030325;28;20484;-52
2023/01/03 06:55:40;;;;;;;3.40;1.70;;;4.20;99.90;;;;;;5032170;28;20539;-52
2023/01/03 06:58:07;;;;;;;5.13;2.40;;;4.20;99.90;;;;;;5027387;28;20466;-52
2023/01/03 07:00:35;;;;;;;2.80;2.00;;;4.20;99.90;;;;;;5032136;28;20523;-52
2023/01/03 07:03:01;;;;;;;4.93;3.07;;;4.10;99.90;;;;;;5029024;28;20461;-54
2023/01/03 07:05:29;;;;;;;10.40;2.30;;;4.10;99.70;;;;;;5045556;22;20888;-50
2023/01/03 07:07:56;;;;;;;1.53;1.33;;;4.10;99.10;;;;;;5030230;28;20461;-51
2023/01/03 07:10:23;;;;;;;5.17;2.30;;;4.10;94.00;;;;;;5029868;28;20464;-51
2023/01/03 07:15:34;;;;;;;6.77;2.17;;;4.10;92.70;;;;;;5031745;28;20600;-51
2023/01/03 07:18:01;;;;;;;4.50;2.20;;;4.10;90.30;;;;;;5030575;28;20499;-51
2023/01/03 07:20:28;;;;;;;3.40;2.50;;;4.10;90.80;;;;;;5032320;28;20469;-52
2023/01/03 07:22:55;;;;;;;5.43;2.53;;;4.10;90.80;;;;;;5032907;28;20480;-50
2023/01/03 07:25:22;;;;;;;8.57;2.90;;;4.10;89.70;;;;;;5031402;28;20520;-51
2023/01/03 07:27:54;;;;;;;5.67;2.60;;;4.10;88.30;;;;;;5023735;28;20493;-51
2023/01/03 07:30:21;;;;;;;3.80;2.23;;;4.00;87.70;;;;;;5019154;28;20462;-51
2023/01/03 07:32:47;;;;;;;2.87;2.57;;;4.00;90.10;;;;;;5026888;28;20569;-50
2023/01/03 07:35:14;;;;;;;6.23;3.00;;;3.90;88.40;;;;;;5036214;28;20535;-51
2023/01/03 07:37:42;;;;;;;7.37;3.07;;;3.90;88.30;;;;;;5036511;28;20466;-52
2023/01/03 07:40:10;;;;;;;5.90;3.17;;;3.90;86.50;;;;;;5039618;28;20938;-51
2023/01/03 07:45:21;;;;;;;9.13;3.10;;;3.90;86.60;;;;;;5031866;28;20657;-51
2023/01/03 07:47:47;;;;;;;4.07;3.07;;;3.80;84.80;;;;;;5036847;28;20483;-51
2023/01/03 07:50:14;;;;;;;5.40;2.83;;;3.80;84.80;;;;;;5035012;28;20552;-52
2023/01/03 07:52:42;;;;;;;3.83;2.70;;;3.80;84.10;;;;;;5035143;28;20464;-52
2023/01/03 07:55:09;;;;;;;5.97;2.80;;;3.80;82.70;;;;;;5033209;28;20519;-51
2023/01/03 07:57:35;;;;;;;7.03;3.10;;;3.80;83.00;;;;;;5035840;28;21017;-50
2023/01/03 08:00:02;;;;;;;3.00;2.20;;;3.70;83.80;;;;;;5037851;28;20480;-55
2023/01/03 08:02:29;;;;;;;6.50;2.93;;;3.80;82.70;;;;;;5035523;28;20533;-55
2023/01/03 08:04:56;;;;;;;4.97;2.47;;;3.70;80.90;;;;;;5033888;28;20560;-57
2023/01/03 08:07:22;;;;;;;9.83;4.43;;;3.80;81.10;;;;;;5034375;28;20573;-56
2023/01/03 08:15:19;;;;;;;3.63;3.10;;;3.90;79.50;;;;;;5034166;28;20492;-56
2023/01/03 08:17:45;;;;;;;5.43;2.73;;;3.90;85.10;;;;;;5035912;28;20497;-56
2023/01/03 08:20:12;;;;;;;6.03;3.13;;;3.90;87.00;;;;;;5037257;28;20517;-56
2023/01/03 08:22:38;;;;;;;3.83;2.80;;;3.90;84.60;;;;;;5035434;28;20514;-56
2023/01/03 08:25:07;;;;;;;5.37;2.70;;;4.00;84.40;;;;;;5035761;28;20516;-56
2023/01/03 08:27:34;;;;;;;9.13;3.10;;;4.00;83.00;;;;;;5032963;28;20562;-56
2023/01/03 08:30:00;;;;;;;5.50;2.40;;;4.10;83.20;;;;;;5035521;28;20492;-55
2023/01/03 08:32:27;;;;;;;4.83;2.70;;;4.30;82.60;;;;;;5036521;28;20457;-56
2023/01/03 08:34:54;;;;;;;3.07;2.57;;;4.40;87.40;;;;;;5024020;28;20543;-52
2023/01/03 08:37:21;;;;;;;4.93;2.63;;;4.60;95.80;;;;;;5026159;28;20491;-52
2023/01/03 08:39:52;;;;;;;5.60;3.00;;;4.70;95.40;;;;;;5039232;28;20464;-52
2023/01/03 08:42:22;;;;;;;8.80;2.40;;;4.70;97.30;;;;;;5041975;28;20468;-52
2023/01/03 08:44:54;;;;;;;4.03;2.43;;;4.70;99.90;;;;;;5045558;28;20482;-54
2023/01/03 08:47:21;;;;;;;7.23;3.13;;;4.80;99.90;;;;;;5039096;28;20457;-52
2023/01/03 08:49:47;;;;;;;5.97;2.57;;;5.10;99.90;;;;;;5038591;28;20464;-51
2023/01/03 08:52:14;;;;;;;5.80;3.10;;;5.30;99.90;;;;;;5038212;28;20517;-52
2023/01/03 08:54:42;;;;;;;5.47;2.40;;;5.30;99.90;;;;;;5028884;28;20517;-52
2023/01/03 08:57:09;;;;;;;6.30;2.50;;;5.40;99.90;;;;;;5027737;28;20464;-52
2023/01/03 08:59:37;;;;;;;5.40;3.03;;;5.40;99.90;;;;;;5028079;28;20473;-52
2023/01/03 09:02:04;;;;;;;3.07;1.90;;;5.50;99.90;;;;;;5027846;28;20473;-52
2023/01/03 09:04:30;;;;;;;4.07;2.20;;;5.50;99.90;;;;;;5026982;28;20521;-52
2023/01/03 09:06:57;;;;;;;7.57;2.30;;;5.70;99.90;;;;;;5029842;28;20469;-52
2023/01/03 09:09:24;;;;;;;3.37;2.60;;;5.70;99.90;;;;;;5022309;28;20468;-51
2023/01/03 09:11:50;;;;;;;2.50;1.97;;;5.60;99.90;;;;;;5019752;28;20464;-51
2023/01/03 09:14:17;;;;;;;7.53;2.10;;;5.60;99.90;;;;;;5025359;28;20542;-52
2023/01/03 09:16:45;;;;;;;6.30;2.33;;;5.70;99.90;;;;;;5028173;28;20547;-51
2023/01/03 09:19:11;;;;;;;4.30;2.00;;;6.10;99.90;;;;;;5029297;28;20464;-52
2023/01/03 09:21:38;;;;;;;9.53;2.40;;;6.10;99.90;;;;;;5026851;28;20493;-51
2023/01/03 09:24:05;;;;;;;5.20;2.03;;;6.30;99.90;;;;;;5027622;28;20500;-51
2023/01/03 09:26:32;;;;;;;3.43;2.20;;;6.30;99.90;;;;;;5019581;28;20553;-51
2023/01/03 09:28:58;;;;;;;10.50;2.67;;;6.00;99.90;;;;;;5026122;28;20500;-52
2023/01/03 09:31:25;;;;;;;5.27;2.60;;;6.20;99.90;;;;;;5028358;28;20533;-51
2023/01/03 09:33:53;;;;;;;3.90;2.20;;;6.10;99.90;;;;;;5020637;28;20489;-51
2023/01/03 09:36:19;;;;;;;2.83;2.23;;;6.30;99.90;;;;;;5021423;28;20513;-51
2023/01/03 09:38:46;;;;;;;7.80;2.23;;;6.60;99.90;;;;;;5023119;28;20509;-52
2023/01/03 09:41:17;;;;;;;5.97;2.57;;;7.00;99.90;;;;;;5028163;28;20539;-52
2023/01/03 09:43:47;;;;;;;5.27;2.20;;;6.80;99.90;;;;;;5030184;28;20511;-51
2023/01/03 09:46:18;;;;;;;4.37;2.63;;;6.60;99.90;;;;;;5033263;28;20484;-51
2023/01/03 09:48:47;;;;;;;3.83;2.17;;;6.60;99.90;;;;;;5022427;28;20522;-51
2023/01/03 10:05:51;;;;;;;5.50;2.43;;;8.90;99.90;;;;;;5032765;28;20566;-52
2023/01/03 10:08:35;;;;;;;5.93;2.50;;;8.90;99.90;;;;;;5024662;28;20508;-52
2023/01/03 10:11:07;;;;;;;4.90;2.70;;;9.50;99.90;;;;;;5030687;28;20523;-51
2023/01/03 10:13:47;;;;;;;5.37;3.10;;;8.80;99.90;;;;;;5033946;28;20556;-51
2023/01/03 10:16:20;;;;;;;9.87;2.73;;;9.40;99.90;;;;;;5027733;28;20507;-53
2023/01/03 10:19:02;;;;;;;5.80;2.97;;;9.60;99.90;;;;;;5031539;28;20493;-53
2023/01/03 10:21:38;;;;;;;2.63;2.43;;;9.10;99.90;;;;;;5038284;28;20460;-52
2023/01/03 10:24:17;;;;;;;6.27;2.70;;;8.70;99.90;;;;;;5041206;28;20495;-52
2023/01/03 10:26:44;;;;;;;5.83;2.90;;;8.80;99.90;;;;;;5037525;28;20436;-57
2023/01/03 10:29:13;;;;;;;4.93;2.47;;;8.50;99.90;;;;;;5040135;28;20468;-52
2023/01/03 10:31:56;;;;;;;5.83;2.10;;;8.20;99.90;;;;;;5031295;28;20462;-52
2023/01/03 10:34:23;;;;;;;3.73;2.57;;;7.90;99.90;;;;;;5026430;28;21038;-52
2023/01/03 10:36:50;;;;;;;5.40;2.83;;;7.70;97.50;;;;;;5028156;28;20499;-52
2023/01/03 10:39:28;;;;;;;7.37;3.27;;;7.60;84.90;;;;;;5022762;28;20857;-53
2023/01/03 10:41:58;;;;;;;6.63;2.80;;;7.50;62.90;;;;;;5018804;28;20494;-52
2023/01/03 10:44:27;;;;;;;5.07;3.17;;;7.30;78.00;;;;;;5029751;28;20458;-51
2023/01/03 10:46:55;;;;;;;6.57;2.97;;;7.30;71.40;;;;;;5026958;28;20494;-51
2023/01/03 10:49:24;;;;;;;4.60;3.23;;;7.10;66.50;;;;;;5024204;28;20492;-51
2023/01/03 10:51:55;;;;;;;7.27;3.30;;;7.20;60.10;;;;;;5032346;28;21072;-52
2023/01/03 10:54:30;;;;;;;5.77;3.00;;;7.40;61.60;;;;;;5024801;28;20519;-50
2023/01/03 10:56:57;;;;;;;4.83;3.23;;;7.20;66.80;;;;;;5030905;28;20448;-51
2023/01/03 10:59:27;;;;;;;4.47;2.60;;;7.70;65.20;;;;;;5027156;28;20484;-50
2023/01/03 11:02:03;;;;;;;9.47;3.53;;;7.70;68.20;;;;;;5030246;28;20466;-52
2023/01/03 11:04:31;;;;;;;3.93;3.30;;;7.90;99.90;;;;;;5024251;28;20481;-51
2023/01/03 11:07:12;;;;;;;3.90;3.50;;;8.40;99.90;;;;;;5030925;28;20470;-51
2023/01/03 11:09:48;;;;;;;8.90;3.30;;;8.10;99.90;;;;;;5024021;28;20538;-51
2023/01/03 11:12:19;;;;;;;7.33;3.60;;;7.70;99.90;;;;;;5032423;28;20445;-52
2023/01/03 11:14:50;;;;;;;11.13;3.17;;;7.40;99.90;;;;;;5018718;28;20486;-52
2023/01/03 11:17:20;;;;;;;5.43;2.60;;;7.20;99.90;;;;;;5023517;28;20471;-52
2023/01/03 11:19:48;;;;;;;3.97;2.27;;;7.00;78.40;;;;;;5029119;28;20821;-51
2023/01/03 11:22:24;;;;;;;3.00;2.70;;;6.70;97.60;;;;;;5023048;28;20462;-51
2023/01/03 11:25:14;;;;;;;6.33;2.83;;;6.90;94.80;;;;;;5026687;28;20484;-51
2023/01/03 11:27:59;;;;;;;8.03;3.00;;;7.00;95.10;;;;;;5026523;28;21021;-51
2023/01/03 11:30:33;;;;;;;4.20;2.47;;;7.00;99.90;;;;;;5026720;28;20622;-51
2023/01/03 11:33:14;;;;;;;6.73;2.53;;;6.80;99.90;;;;;;5024716;28;20528;-51
2023/01/03 11:35:52;;;;;;;5.83;3.23;;;6.90;99.90;;;;;;5028099;28;20550;-51
2023/01/03 11:38:44;;;;;;;5.77;2.57;;;7.00;99.90;;;;;;5028675;28;20552;-51
2023/01/03 11:41:25;;;;;;;2.37;2.03;;;7.40;99.90;;;;;;5026990;28;20462;-50
2023/01/03 11:44:17;;;;;;;2.93;2.30;;;7.30;99.90;;;;;;5029510;28;21021;-51
2023/01/03 11:46:57;;;;;;;10.03;2.53;;;7.20;99.90;;;;;;5027929;28;20500;-50
2023/01/03 11:49:33;;;;;;;9.93;2.60;;;6.70;99.90;;;;;;5031539;28;20880;-50
2023/01/03 11:52:15;;;;;;;4.27;2.40;;;6.70;99.90;;;;;;5029309;28;20461;-51
2023/01/03 11:54:57;;;;;;;9.57;2.63;;;6.60;99.90;;;;;;5026528;28;20893;-51
2023/01/03 11:57:33;;;;;;;5.33;2.83;;;6.70;99.90;;;;;;5021040;28;20469;-52
2023/01/03 12:00:10;;;;;;;3.23;2.27;;;6.70;99.90;;;;;;5024950;28;20501;-51
2023/01/03 12:03:08;;;;;;;3.33;2.13;;;6.60;99.90;;;;;;5024728;28;20445;-51
2023/01/03 12:05:41;;;;;;;7.07;2.80;;;6.70;99.90;;;;;;4983221;28;20515;-51
2023/01/03 12:08:51;;;;;;;3.67;2.57;;;6.70;99.90;;;;;;5023010;28;20470;-51
2023/01/03 12:11:27;;;;;;;10.47;2.80;;;6.70;99.90;;;;;;5024191;28;21037;-51
2023/01/03 12:14:01;;;;;;;4.87;2.43;;;6.70;99.90;;;;;;5024899;28;20872;-52
2023/01/03 12:16:33;;;;;;;5.07;2.70;;;6.70;97.00;;;;;;5026652;28;20490;-52
2023/01/03 12:19:02;;;;;;;8.83;5.17;;;6.80;99.90;;;;;;5019832;28;20470;-51
2023/01/03 12:21:34;;;;;;;4.97;3.43;;;6.80;97.80;;;;;;5026615;28;20461;-52
2023/01/03 12:24:06;;;;;;;9.70;2.23;;;6.70;99.90;;;;;;5025242;28;20475;-50
2023/01/03 12:26:37;;;;;;;6.73;2.37;;;6.70;99.90;;;;;;5030008;28;20473;-51
2023/01/03 12:29:11;;;;;;;5.17;2.80;;;6.70;99.90;;;;;;5031938;28;20465;-51
2023/01/03 12:31:43;;;;;;;5.53;2.50;;;6.70;99.90;;;;;;5027877;28;20902;-50
2023/01/03 12:34:20;;;;;;;5.37;2.67;;;6.60;99.90;;;;;;5028388;28;20535;-52
2023/01/03 12:36:53;;;;;;;6.20;2.20;;;6.70;99.90;;;;;;5025366;28;20470;-52
2023/01/03 12:39:45;;;;;;;10.67;3.43;;;6.80;99.90;;;;;;5029168;28;20465;-52
2023/01/03 12:42:21;;;;;;;5.50;3.30;;;7.10;99.90;;;;;;5027218;28;20515;-52
2023/01/03 12:44:55;;;;;;;5.73;2.40;;;8.10;99.90;;;;;;5020660;28;20477;-51
2023/01/03 12:47:29;;;;;;;5.20;2.27;;;8.60;99.90;;;;;;5028790;28;20856;-51
2023/01/03 12:50:01;;;;;;;7.50;2.30;;;8.50;23.80;;;;;;5028881;28;20789;-51
2023/01/03 12:52:29;;;;;;;9.13;2.70;;;8.70;35.60;;;;;;5023602;28;20460;-51
2023/01/03 12:55:03;;;;;;;3.23;2.80;;;8.40;27.70;;;;;;5017647;28;20553;-51
2023/01/03 12:58:11;;;;;;;3.50;2.00;;;8.00;79.80;;;;;;5028301;28;20502;-51
2023/01/03 13:00:51;;;;;;;8.67;3.00;;;7.80;99.90;;;;;;5014298;28;20465;-51
2023/01/03 13:03:22;;;;;;;18.67;9.93;;;7.60;99.90;;;;;;5031011;28;20464;-52
2023/01/03 13:05:51;;;;;;;23.83;12.80;;;7.50;99.90;;;;;;5039412;22;20866;-52
2023/01/03 13:08:28;;;;;;;9.03;6.30;;;8.10;99.90;;;;;;5025557;28;20462;-53
2023/01/03 13:10:59;;;;;;;7.73;3.07;;;8.20;23.50;;;;;;5027245;28;20833;-53
2023/01/03 13:13:26;;;;;;;12.67;7.53;;;8.10;29.40;;;;;;5029556;28;20465;-53
2023/01/03 13:15:54;;;;;;;6.10;3.50;;;8.20;25.60;;;;;;5016502;28;21023;-53
2023/01/03 13:18:42;;;;;;;6.87;2.50;;;7.90;76.40;;;;;;5007927;28;20466;-53
2023/01/03 13:21:45;;;;;;;10.23;2.60;;;7.80;99.90;;;;;;5006994;28;20465;-53
2023/01/03 13:24:12;;;;;;;3.80;2.70;;;7.60;99.90;;;;;;5005900;28;20864;-53
2023/01/03 13:26:38;;;;;;;4.43;3.00;;;7.40;99.90;;;;;;5013397;28;20604;-53
2023/01/03 13:29:43;;;;;;;6.63;3.27;;;7.20;99.90;;;;;;5005650;28;20532;-52
2023/01/03 13:32:25;;;;;;;4.60;2.80;;;7.30;99.90;;;;;;5007225;28;20536;-53
2023/01/03 13:35:19;;;;;;;4.70;3.23;;;7.00;99.90;;;;;;5005249;28;20565;-53
2023/01/03 13:37:49;;;;;;;5.40;2.57;;;7.10;99.90;;;;;;5008264;28;20462;-53
2023/01/03 13:40:24;;;;;;;7.37;3.03;;;7.20;99.90;;;;;;5001429;28;20516;-54
2023/01/03 13:43:02;;;;;;;4.63;2.70;;;7.40;99.90;;;;;;5007991;28;20449;-52
2023/01/03 13:45:58;;;;;;;2.40;2.20;;;7.50;99.90;;;;;;5013446;28;20484;-53
2023/01/03 13:48:38;;;;;;;3.53;2.20;;;7.60;99.90;;;;;;5009515;28;20489;-53
2023/01/03 13:51:45;;;;;;;3.87;2.80;;;7.50;99.90;;;;;;5006006;28;20469;-53
2023/01/03 13:54:33;;;;;;;4.10;2.60;;;7.80;99.90;;;;;;5011002;28;20461;-54
2023/01/03 13:57:05;;;;;;;3.90;2.17;;;7.70;99.90;;;;;;5006228;28;20481;-52
2023/01/03 13:59:41;;;;;;;4.10;2.50;;;8.00;24.60;;;;;;5012632;28;20465;-53
2023/01/03 14:02:47;;;;;;;3.47;2.27;;;8.50;41.40;;;;;;5013906;28;20465;-53
2023/01/03 14:05:29;;;;;;;13.47;2.90;;;7.80;34.00;;;;;;5003118;28;21057;-54
2023/01/03 14:08:17;;;;;;;5.80;2.60;;;7.40;99.90;;;;;;5005142;28;20987;-54
2023/01/03 14:11:04;;;;;;;5.03;2.13;;;7.20;99.90;;;;;;5004130;28;20443;-52
2023/01/03 14:13:38;;;;;;;4.23;2.53;;;7.00;99.90;;;;;;5005405;28;20501;-52
2023/01/03 14:16:15;;;;;;;2.40;2.00;;;6.90;99.90;;;;;;5008373;28;20493;-53
2023/01/03 14:18:47;;;;;;;4.63;2.03;;;6.70;99.90;;;;;;4998188;28;20522;-53
2023/01/03 14:21:22;;;;;;;3.73;1.77;;;6.70;99.90;;;;;;5006790;28;21045;-54
2023/01/03 14:23:49;;;;;;;4.33;2.00;;;6.60;99.90;;;;;;5005262;28;20509;-53
2023/01/03 14:26:18;;;;;;;6.37;2.20;;;6.60;99.90;;;;;;5005118;28;20489;-53
2023/01/03 14:28:48;;;;;;;7.50;2.43;;;6.50;99.90;;;;;;5002599;28;20832;-54
2023/01/03 14:31:19;;;;;;;3.83;2.13;;;6.40;99.90;;;;;;5002936;28;20476;-53
2023/01/03 14:33:51;;;;;;;4.40;1.80;;;6.30;99.90;;;;;;5004374;28;20470;-53